createdAt,value
2019-06-26T00:00:40.327Z,0.00
2019-06-26T00:01:40.305Z,0.00
2019-06-26T00:02:40.313Z,0.00
2019-06-26T00:03:40.335Z,0.00
2019-06-26T00:04:40.276Z,0.00
2019-06-26T00:05:40.283Z,0.00
2019-06-26T00:06:40.257Z,0.00
2019-06-26T00:07:40.245Z,0.00
2019-06-26T00:08:40.244Z,0.00
2019-06-26T00:09:40.285Z,0.00
2019-06-26T00:10:40.208Z,0.00
2019-06-26T00:11:40.205Z,0.00
2019-06-26T00:12:40.224Z,0.00
2019-06-26T00:13:40.177Z,0.00
2019-06-26T00:14:40.168Z,0.00
2019-06-26T00:15:40.194Z,0.00
2019-06-26T00:16:40.147Z,0.00
2019-06-26T00:17:40.147Z,0.00
2019-06-26T00:18:40.126Z,0.00
2019-06-26T00:19:40.135Z,0.00
2019-06-26T00:20:40.108Z,0.00
2019-06-26T00:21:40.134Z,0.00
2019-06-26T00:22:40.084Z,0.00
2019-06-26T00:23:40.078Z,0.00
2019-06-26T00:24:40.064Z,0.00
2019-06-26T00:25:40.043Z,0.00
2019-06-26T00:26:40.045Z,0.00
2019-06-26T00:27:40.081Z,0.00
2019-06-26T00:28:40.023Z,0.00
2019-06-26T00:29:40.070Z,0.00
2019-06-26T00:30:40.006Z,0.00
2019-06-26T00:31:39.990Z,0.00
2019-06-26T00:32:39.973Z,0.00
2019-06-26T00:33:40.008Z,0.00
2019-06-26T00:34:39.958Z,0.00
2019-06-26T00:35:39.937Z,0.00
2019-06-26T00:36:39.934Z,0.00
2019-06-26T00:37:39.943Z,0.00
2019-06-26T00:38:40.262Z,0.00
2019-06-26T00:39:39.933Z,0.00
2019-06-26T00:40:39.945Z,0.00
2019-06-26T00:41:39.874Z,0.00
2019-06-26T00:42:39.908Z,0.00
2019-06-26T00:43:42.604Z,0.00
2019-06-26T00:44:39.848Z,0.00
2019-06-26T00:45:39.863Z,0.00
2019-06-26T00:46:39.814Z,0.00
2019-06-26T00:47:39.803Z,0.00
2019-06-26T00:48:39.824Z,0.00
2019-06-26T00:49:39.783Z,0.00
2019-06-26T00:50:39.877Z,0.00
2019-06-26T00:51:39.764Z,0.00
2019-06-26T00:52:39.765Z,0.00
2019-06-26T00:53:39.761Z,0.00
2019-06-26T00:54:39.737Z,0.00
2019-06-26T00:55:39.723Z,0.00
2019-06-26T00:56:39.743Z,0.00
2019-06-26T00:57:39.703Z,0.00
2019-06-26T00:58:39.682Z,0.00
2019-06-26T00:59:39.672Z,0.00
2019-06-26T01:00:39.663Z,0.00
2019-06-26T01:01:39.751Z,0.00
2019-06-26T01:02:39.653Z,0.00
2019-06-26T01:03:39.661Z,0.00
2019-06-26T01:04:39.649Z,0.00
2019-06-26T01:05:39.609Z,0.00
2019-06-26T01:06:39.602Z,0.00
2019-06-26T01:07:39.632Z,0.00
2019-06-26T01:08:39.587Z,0.00
2019-06-26T01:09:39.575Z,0.00
2019-06-26T01:10:39.552Z,0.00
2019-06-26T01:11:39.562Z,0.00
2019-06-26T01:12:39.538Z,0.00
2019-06-26T01:13:39.551Z,0.00
2019-06-26T01:14:39.522Z,0.00
2019-06-26T01:15:39.503Z,0.00
2019-06-26T01:16:39.490Z,0.00
2019-06-26T01:17:39.585Z,0.00
2019-06-26T01:18:39.572Z,0.00
2019-06-26T01:19:39.458Z,0.00
2019-06-26T01:20:39.445Z,0.00
2019-06-26T01:21:39.510Z,0.00
2019-06-26T01:22:39.426Z,0.00
2019-06-26T01:23:39.410Z,0.00
2019-06-26T01:24:39.450Z,0.00
2019-06-26T01:25:39.392Z,0.00
2019-06-26T01:26:39.382Z,0.00
2019-06-26T01:27:39.369Z,0.00
2019-06-26T01:28:39.356Z,0.00
2019-06-26T01:29:39.353Z,0.00
2019-06-26T01:30:39.450Z,0.00
2019-06-26T01:31:39.359Z,0.00
2019-06-26T01:32:39.323Z,0.00
2019-06-26T01:33:39.326Z,0.00
2019-06-26T01:34:39.351Z,0.00
2019-06-26T01:35:39.280Z,0.00
2019-06-26T01:36:39.314Z,0.00
2019-06-26T01:37:39.264Z,0.00
2019-06-26T01:38:39.248Z,0.00
2019-06-26T01:39:39.241Z,0.00
2019-06-26T01:40:39.288Z,0.00
2019-06-26T01:41:39.220Z,0.00
2019-06-26T01:42:39.219Z,0.00
2019-06-26T01:43:39.209Z,0.00
2019-06-26T01:44:39.179Z,0.00
2019-06-26T01:45:39.180Z,0.00
2019-06-26T01:46:39.245Z,0.00
2019-06-26T01:47:39.189Z,0.00
2019-06-26T01:48:39.145Z,0.00
2019-06-26T01:49:39.210Z,0.00
2019-06-26T01:50:39.117Z,0.00
2019-06-26T01:51:39.106Z,0.00
2019-06-26T01:52:39.101Z,0.00
2019-06-26T01:53:39.132Z,0.00
2019-06-26T01:54:39.069Z,0.00
2019-06-26T01:55:39.062Z,0.00
2019-06-26T01:56:39.081Z,0.00
2019-06-26T01:57:39.038Z,0.00
2019-06-26T01:58:39.039Z,0.00
2019-06-26T01:59:39.015Z,0.00
2019-06-26T02:00:39.090Z,0.00
2019-06-26T02:01:38.999Z,0.00
2019-06-26T02:02:38.985Z,0.00
2019-06-26T02:03:38.981Z,0.00
2019-06-26T02:04:38.978Z,0.00
2019-06-26T02:05:39.005Z,0.00
2019-06-26T02:06:38.948Z,0.00
2019-06-26T02:07:38.940Z,0.00
2019-06-26T02:08:38.926Z,0.00
2019-06-26T02:09:38.907Z,0.00
2019-06-26T02:10:38.911Z,0.00
2019-06-26T02:11:39.054Z,0.00
2019-06-26T02:12:38.886Z,0.00
2019-06-26T02:13:38.856Z,0.00
2019-06-26T02:14:38.908Z,0.00
2019-06-26T02:15:38.874Z,0.00
2019-06-26T02:16:38.878Z,0.00
2019-06-26T02:17:38.867Z,0.00
2019-06-26T02:18:38.808Z,0.00
2019-06-26T02:19:38.800Z,0.00
2019-06-26T02:20:38.787Z,0.00
2019-06-26T02:21:38.785Z,0.00
2019-06-26T02:22:38.804Z,0.00
2019-06-26T02:23:38.768Z,0.00
2019-06-26T02:24:38.757Z,0.00
2019-06-26T02:25:38.741Z,0.00
2019-06-26T02:26:38.787Z,0.00
2019-06-26T02:27:38.716Z,0.00
2019-06-26T02:28:38.705Z,0.00
2019-06-26T02:29:38.747Z,0.00
2019-06-26T02:30:38.686Z,0.00
2019-06-26T02:31:38.666Z,0.00
2019-06-26T02:32:38.735Z,0.00
2019-06-26T02:33:38.647Z,0.00
2019-06-26T02:34:38.643Z,0.00
2019-06-26T02:35:38.625Z,0.00
2019-06-26T02:36:38.616Z,0.00
2019-06-26T02:37:38.637Z,0.00
2019-06-26T02:38:38.646Z,0.00
2019-06-26T02:39:38.627Z,0.00
2019-06-26T02:40:38.597Z,0.00
2019-06-26T02:41:38.578Z,0.00
2019-06-26T02:42:39.522Z,0.00
2019-06-26T02:43:38.543Z,0.00
2019-06-26T02:44:52.011Z,0.00
2019-06-26T02:45:39.515Z,0.00
2019-06-26T02:46:38.506Z,0.00
2019-06-26T02:47:38.514Z,0.00
2019-06-26T02:48:38.497Z,0.00
2019-06-26T02:49:38.479Z,0.00
2019-06-26T02:50:38.498Z,0.00
2019-06-26T02:51:38.468Z,0.00
2019-06-26T02:52:38.448Z,0.00
2019-06-26T02:53:38.425Z,0.00
2019-06-26T02:54:38.419Z,0.00
2019-06-26T02:55:38.464Z,0.00
2019-06-26T02:56:38.440Z,0.00
2019-06-26T02:57:38.384Z,0.00
2019-06-26T02:58:38.376Z,0.00
2019-06-26T02:59:38.366Z,0.00
2019-06-26T03:00:38.378Z,0.00
2019-06-26T03:01:38.387Z,0.00
2019-06-26T03:02:38.341Z,0.00
2019-06-26T03:03:38.362Z,0.00
2019-06-26T03:04:38.305Z,0.00
2019-06-26T03:05:38.293Z,0.00
2019-06-26T03:06:38.284Z,0.00
2019-06-26T03:07:38.554Z,0.00
2019-06-26T03:08:38.296Z,0.00
2019-06-26T03:09:38.295Z,0.00
2019-06-26T03:10:38.346Z,0.00
2019-06-26T03:11:38.233Z,0.00
2019-06-26T03:12:38.222Z,0.00
2019-06-26T03:13:38.224Z,0.00
2019-06-26T03:14:38.214Z,0.00
2019-06-26T03:15:38.234Z,0.00
2019-06-26T03:16:38.182Z,0.00
2019-06-26T03:17:53.810Z,5.62
2019-06-26T03:18:39.152Z,5.62
2019-06-26T03:19:38.153Z,5.62
2019-06-26T03:20:38.138Z,5.62
2019-06-26T03:21:38.140Z,5.62
2019-06-26T03:22:38.123Z,5.62
2019-06-26T03:23:38.142Z,5.62
2019-06-26T03:24:38.101Z,11.25
2019-06-26T03:25:38.082Z,11.25
2019-06-26T03:26:38.081Z,11.25
2019-06-26T03:27:38.089Z,11.25
2019-06-26T03:28:38.081Z,11.25
2019-06-26T03:29:38.032Z,16.88
2019-06-26T03:30:38.023Z,16.88
2019-06-26T03:31:38.023Z,16.88
2019-06-26T03:32:38.083Z,16.88
2019-06-26T03:33:38.039Z,22.50
2019-06-26T03:34:37.985Z,22.50
2019-06-26T03:35:40.720Z,22.50
2019-06-26T03:36:37.969Z,28.12
2019-06-26T03:37:37.955Z,28.12
2019-06-26T03:38:37.961Z,28.12
2019-06-26T03:39:38.001Z,33.75
2019-06-26T03:40:37.921Z,33.75
2019-06-26T03:41:37.952Z,39.38
2019-06-26T03:42:37.918Z,39.38
2019-06-26T03:43:37.884Z,45.00
2019-06-26T03:44:37.888Z,45.00
2019-06-26T03:45:37.863Z,50.62
2019-06-26T03:46:37.892Z,50.62
2019-06-26T03:47:37.840Z,56.25
2019-06-26T03:48:37.832Z,56.25
2019-06-26T03:49:37.812Z,61.88
2019-06-26T03:50:37.812Z,61.88
2019-06-26T03:51:37.804Z,67.50
2019-06-26T03:52:37.830Z,67.50
2019-06-26T03:53:37.807Z,73.12
2019-06-26T03:54:37.811Z,73.12
2019-06-26T03:55:37.772Z,78.75
2019-06-26T03:56:37.739Z,78.75
2019-06-26T03:57:37.830Z,78.75
2019-06-26T03:58:37.750Z,78.75
2019-06-26T03:59:37.745Z,84.38
2019-06-26T04:00:37.698Z,90.00
2019-06-26T04:01:37.702Z,90.00
2019-06-26T04:02:37.681Z,95.62
2019-06-26T04:03:37.710Z,101.25
2019-06-26T04:04:37.669Z,101.25
2019-06-26T04:05:37.641Z,106.88
2019-06-26T04:06:37.629Z,106.88
2019-06-26T04:07:37.622Z,112.50
2019-06-26T04:08:37.626Z,118.12
2019-06-26T04:09:37.646Z,118.12
2019-06-26T04:10:37.592Z,123.75
2019-06-26T04:11:37.579Z,129.38
2019-06-26T04:12:37.570Z,135.00
2019-06-26T04:13:37.560Z,135.00
2019-06-26T04:14:37.549Z,140.62
2019-06-26T04:15:42.543Z,140.62
2019-06-26T04:16:38.537Z,140.62
2019-06-26T04:17:37.507Z,146.25
2019-06-26T04:18:37.498Z,151.88
2019-06-26T04:19:37.536Z,157.50
2019-06-26T04:20:37.488Z,163.12
2019-06-26T04:21:37.469Z,163.12
2019-06-26T04:22:37.552Z,168.75
2019-06-26T04:23:37.455Z,174.38
2019-06-26T04:24:37.438Z,180.00
2019-06-26T04:25:38.433Z,185.62
2019-06-26T04:26:37.448Z,191.25
2019-06-26T04:27:37.408Z,196.88
2019-06-26T04:28:37.410Z,196.88
2019-06-26T04:29:37.378Z,202.50
2019-06-26T04:30:37.423Z,208.12
2019-06-26T04:31:37.382Z,225.00
2019-06-26T04:32:37.349Z,298.12
2019-06-26T04:33:37.339Z,382.50
2019-06-26T04:34:37.328Z,421.88
2019-06-26T04:35:37.314Z,444.38
2019-06-26T04:36:37.357Z,450.00
2019-06-26T04:37:37.297Z,466.88
2019-06-26T04:38:37.280Z,478.12
2019-06-26T04:39:37.277Z,466.88
2019-06-26T04:40:37.266Z,483.75
2019-06-26T04:41:37.248Z,495.00
2019-06-26T04:42:37.287Z,511.88
2019-06-26T04:43:37.287Z,528.75
2019-06-26T04:44:37.219Z,534.38
2019-06-26T04:45:37.517Z,562.50
2019-06-26T04:46:37.199Z,573.75
2019-06-26T04:47:37.410Z,562.50
2019-06-26T04:48:37.218Z,607.50
2019-06-26T04:49:37.156Z,613.12
2019-06-26T04:50:37.281Z,601.88
2019-06-26T04:51:37.143Z,624.38
2019-06-26T04:52:37.155Z,635.62
2019-06-26T04:53:37.406Z,618.75
2019-06-26T04:54:37.156Z,635.62
2019-06-26T04:55:37.095Z,669.38
2019-06-26T04:56:37.148Z,675.00
2019-06-26T04:57:37.086Z,686.25
2019-06-26T04:58:37.067Z,691.88
2019-06-26T04:59:37.048Z,703.12
2019-06-26T05:00:44.269Z,725.62
2019-06-26T05:01:37.038Z,759.38
2019-06-26T05:02:38.253Z,748.12
2019-06-26T05:03:37.062Z,776.25
2019-06-26T05:04:37.046Z,759.38
2019-06-26T05:05:39.945Z,770.62
2019-06-26T05:06:36.984Z,759.38
2019-06-26T05:07:44.062Z,770.62
2019-06-26T05:08:36.994Z,770.62
2019-06-26T05:09:36.947Z,759.38
2019-06-26T05:10:37.977Z,742.50
2019-06-26T05:11:38.979Z,691.88
2019-06-26T05:15:07.825Z,680.62
2019-06-26T05:17:16.581Z,770.62
2019-06-26T05:18:16.763Z,855.00
2019-06-26T05:19:26.922Z,978.75
2019-06-26T05:20:16.096Z,1035.00
2019-06-26T05:21:19.798Z,1057.50
2019-06-26T05:23:32.541Z,1175.62
2019-06-26T05:24:32.184Z,1080.00
2019-06-26T05:25:45.287Z,1074.38
2019-06-26T05:27:44.399Z,1141.88
2019-06-26T05:28:44.647Z,1181.25
2019-06-26T05:29:47.058Z,1164.38
2019-06-26T05:30:47.732Z,1125.00
2019-06-26T05:31:52.338Z,1136.25
2019-06-26T05:32:51.462Z,1237.50
2019-06-26T05:33:44.334Z,1164.38
2019-06-26T05:34:44.254Z,1243.12
2019-06-26T05:35:51.426Z,1378.12
2019-06-26T05:36:44.227Z,1299.38
2019-06-26T05:37:48.029Z,1248.75
2019-06-26T05:38:44.811Z,1321.88
2019-06-26T05:39:54.597Z,1288.12
2019-06-26T05:40:47.877Z,1276.88
2019-06-26T05:41:45.117Z,1231.88
2019-06-26T05:42:51.901Z,1181.25
2019-06-26T05:43:51.357Z,1248.75
2019-06-26T05:44:44.945Z,1372.50
2019-06-26T05:45:44.602Z,1355.62
2019-06-26T05:46:45.019Z,1366.88
2019-06-26T05:47:53.517Z,1440.00
2019-06-26T05:48:46.742Z,1400.62
2019-06-26T05:49:44.729Z,1389.38
2019-06-26T05:50:51.505Z,1372.50
2019-06-26T05:51:45.027Z,1395.00
2019-06-26T05:52:44.082Z,1456.88
2019-06-26T05:53:44.035Z,1451.25
2019-06-26T05:54:44.037Z,1423.12
2019-06-26T05:55:44.023Z,1518.75
2019-06-26T05:56:45.473Z,1479.38
2019-06-26T05:57:44.027Z,1445.62
2019-06-26T05:58:43.991Z,1591.88
2019-06-26T05:59:43.975Z,1552.50
2019-06-26T06:00:43.955Z,1597.50
2019-06-26T06:01:43.983Z,1681.88
2019-06-26T06:02:43.963Z,1591.88
2019-06-26T06:03:43.935Z,1608.75
2019-06-26T06:04:43.996Z,1755.00
2019-06-26T06:05:43.942Z,1704.38
2019-06-26T06:06:43.914Z,1681.88
2019-06-26T06:07:43.884Z,1861.88
2019-06-26T06:08:43.874Z,1732.50
2019-06-26T06:09:43.897Z,1755.00
2019-06-26T06:10:43.889Z,1794.38
2019-06-26T06:11:43.843Z,1715.62
2019-06-26T06:12:43.838Z,1833.75
2019-06-26T06:13:43.835Z,1861.88
2019-06-26T06:14:43.845Z,1698.75
2019-06-26T06:15:43.839Z,1563.75
2019-06-26T06:16:47.812Z,1586.25
2019-06-26T06:17:43.774Z,1755.00
2019-06-26T06:18:43.785Z,1895.62
2019-06-26T06:19:43.764Z,1732.50
2019-06-26T06:20:43.743Z,1833.75
2019-06-26T06:21:43.793Z,1935.00
2019-06-26T06:22:43.774Z,1996.88
2019-06-26T06:23:43.737Z,1985.62
2019-06-26T06:24:43.698Z,2013.75
2019-06-26T06:25:43.860Z,1985.62
2019-06-26T06:26:43.758Z,1946.25
2019-06-26T06:27:43.773Z,1974.38
2019-06-26T06:28:43.777Z,2013.75
2019-06-26T06:29:43.655Z,2019.38
2019-06-26T06:30:43.678Z,2025.00
2019-06-26T06:31:43.666Z,2103.75
2019-06-26T06:32:43.615Z,1923.75
2019-06-26T06:33:43.605Z,2086.88
2019-06-26T06:34:43.595Z,2233.12
2019-06-26T06:35:43.647Z,2120.62
2019-06-26T06:36:43.629Z,2160.00
2019-06-26T06:37:43.569Z,2221.88
2019-06-26T06:38:43.575Z,2182.50
2019-06-26T06:39:43.535Z,2188.12
2019-06-26T06:40:43.526Z,2373.75
2019-06-26T06:41:43.720Z,2036.25
2019-06-26T06:42:43.515Z,1918.12
2019-06-26T06:43:43.497Z,2373.75
2019-06-26T06:44:43.562Z,2458.12
2019-06-26T06:45:43.491Z,2390.62
2019-06-26T06:46:43.509Z,2379.38
2019-06-26T06:47:43.503Z,2272.50
2019-06-26T06:48:43.510Z,2446.88
2019-06-26T06:49:43.438Z,2610.00
2019-06-26T06:50:43.466Z,2441.25
2019-06-26T06:51:43.406Z,2311.88
2019-06-26T06:52:43.403Z,2210.62
2019-06-26T06:53:43.692Z,2446.88
2019-06-26T06:54:43.376Z,2621.25
2019-06-26T06:55:43.405Z,2536.88
2019-06-26T06:56:43.425Z,2272.50
2019-06-26T06:57:43.451Z,2115.00
2019-06-26T06:58:43.336Z,2300.62
2019-06-26T06:59:43.334Z,2368.12
2019-06-26T07:00:43.398Z,2328.75
2019-06-26T07:01:43.335Z,2570.62
2019-06-26T07:02:43.298Z,2424.38
2019-06-26T07:03:43.293Z,2340.00
2019-06-26T07:04:43.295Z,2536.88
2019-06-26T07:05:43.255Z,2632.50
2019-06-26T07:06:43.299Z,2626.88
2019-06-26T07:07:43.257Z,2604.38
2019-06-26T07:08:43.236Z,2688.75
2019-06-26T07:09:43.235Z,2683.12
2019-06-26T07:10:43.264Z,2581.88
2019-06-26T07:11:43.254Z,2643.75
2019-06-26T07:12:43.189Z,2773.12
2019-06-26T07:13:43.176Z,2536.88
2019-06-26T07:14:43.164Z,2626.88
2019-06-26T07:15:43.157Z,2666.25
2019-06-26T07:16:43.156Z,2570.62
2019-06-26T07:17:43.196Z,2508.75
2019-06-26T07:18:43.288Z,2621.25
2019-06-26T07:19:43.113Z,2784.38
2019-06-26T07:20:44.743Z,2806.88
2019-06-26T07:21:43.176Z,2716.88
2019-06-26T07:22:43.084Z,2930.62
2019-06-26T07:23:43.120Z,2880.00
2019-06-26T07:24:43.063Z,2576.25
2019-06-26T07:25:43.057Z,2773.12
2019-06-26T07:26:43.043Z,3082.50
2019-06-26T07:27:43.087Z,2975.62
2019-06-26T07:28:43.027Z,2778.75
2019-06-26T07:29:43.006Z,2992.50
2019-06-26T07:30:42.998Z,3015.00
2019-06-26T07:31:42.990Z,3054.38
2019-06-26T07:32:43.001Z,2874.38
2019-06-26T07:33:43.015Z,2880.00
2019-06-26T07:34:42.966Z,2857.50
2019-06-26T07:35:42.975Z,2863.12
2019-06-26T07:36:42.955Z,2953.12
2019-06-26T07:37:42.945Z,2851.88
2019-06-26T07:38:42.916Z,3003.75
2019-06-26T07:39:43.117Z,3369.38
2019-06-26T07:40:42.896Z,3256.88
2019-06-26T07:41:42.919Z,2790.00
2019-06-26T07:42:42.915Z,2964.38
2019-06-26T07:43:42.940Z,3217.50
2019-06-26T07:44:42.847Z,3060.00
2019-06-26T07:45:42.836Z,2964.38
2019-06-26T07:46:42.958Z,3082.50
2019-06-26T07:47:44.243Z,3245.62
2019-06-26T07:48:42.851Z,3211.88
2019-06-26T07:49:42.796Z,3420.00
2019-06-26T07:50:42.798Z,3285.00
2019-06-26T07:51:42.788Z,2986.88
2019-06-26T07:52:42.899Z,2638.12
2019-06-26T07:53:42.786Z,2683.12
2019-06-26T07:54:42.776Z,3206.25
2019-06-26T07:55:42.763Z,3223.12
2019-06-26T07:56:42.718Z,3493.12
2019-06-26T07:57:42.707Z,3369.38
2019-06-26T07:58:42.761Z,3043.12
2019-06-26T07:59:42.738Z,3195.00
2019-06-26T08:00:42.677Z,3290.62
2019-06-26T08:01:42.668Z,3206.25
2019-06-26T08:02:42.656Z,3352.50
2019-06-26T08:03:42.644Z,3538.12
2019-06-26T08:04:42.676Z,3301.88
2019-06-26T08:05:43.283Z,3391.88
2019-06-26T08:06:42.607Z,3650.62
2019-06-26T08:07:42.598Z,3285.00
2019-06-26T08:08:42.649Z,3043.12
2019-06-26T08:09:42.588Z,3251.25
2019-06-26T08:10:42.634Z,3341.25
2019-06-26T08:11:42.609Z,3088.12
2019-06-26T08:12:42.547Z,3313.12
2019-06-26T08:13:42.567Z,3650.62
2019-06-26T08:14:42.587Z,3391.88
2019-06-26T08:15:42.570Z,3330.00
2019-06-26T08:16:42.554Z,3555.00
2019-06-26T08:17:58.736Z,3763.12
2019-06-26T08:18:43.489Z,3712.50
2019-06-26T08:19:42.494Z,3611.25
2019-06-26T08:20:55.439Z,3577.50
2019-06-26T08:21:46.669Z,3425.62
2019-06-26T08:22:42.495Z,3465.00
2019-06-26T08:23:42.447Z,3448.12
2019-06-26T08:24:42.519Z,3560.62
2019-06-26T08:25:42.419Z,3881.25
2019-06-26T08:26:42.411Z,3436.88
2019-06-26T08:27:42.397Z,2880.00
2019-06-26T08:28:42.426Z,3054.38
2019-06-26T08:29:42.377Z,3425.62
2019-06-26T08:30:42.375Z,3605.62
2019-06-26T08:31:42.349Z,3780.00
2019-06-26T08:32:42.409Z,3695.62
2019-06-26T08:33:42.361Z,3560.62
2019-06-26T08:34:42.359Z,3768.75
2019-06-26T08:35:42.304Z,4185.00
2019-06-26T08:36:42.296Z,4010.62
2019-06-26T08:37:42.336Z,3768.75
2019-06-26T08:38:42.270Z,3982.50
2019-06-26T08:39:42.289Z,3729.38
2019-06-26T08:40:42.260Z,3099.38
2019-06-26T08:41:42.247Z,3515.62
2019-06-26T08:42:42.234Z,4117.50
2019-06-26T08:43:42.271Z,3909.38
2019-06-26T08:44:42.208Z,3622.50
2019-06-26T08:45:49.300Z,3965.62
2019-06-26T08:46:42.194Z,4016.25
2019-06-26T08:47:42.173Z,3684.38
2019-06-26T08:48:42.191Z,3560.62
2019-06-26T08:49:42.247Z,3746.25
2019-06-26T08:50:42.146Z,3751.88
2019-06-26T08:51:42.133Z,3965.62
2019-06-26T08:52:42.197Z,4443.75
2019-06-26T08:53:42.115Z,4629.38
2019-06-26T08:54:42.095Z,4438.12
2019-06-26T08:55:42.125Z,4325.62
2019-06-26T08:56:42.133Z,4089.38
2019-06-26T08:57:42.075Z,3785.62
2019-06-26T08:58:42.064Z,3616.88
2019-06-26T08:59:42.054Z,3588.75
2019-06-26T09:00:42.056Z,3965.62
2019-06-26T09:01:42.067Z,3993.75
2019-06-26T09:02:42.025Z,3926.25
2019-06-26T09:03:42.293Z,4241.25
2019-06-26T09:04:41.995Z,4021.88
2019-06-26T09:05:47.894Z,3723.75
2019-06-26T09:06:43.025Z,3813.75
2019-06-26T09:07:41.964Z,4134.38
2019-06-26T09:08:41.964Z,3965.62
2019-06-26T09:09:41.999Z,3605.62
2019-06-26T09:10:44.880Z,3684.38
2019-06-26T09:11:41.925Z,3802.50
2019-06-26T09:12:41.964Z,4083.75
2019-06-26T09:13:41.953Z,4230.00
2019-06-26T09:14:41.989Z,3988.12
2019-06-26T09:15:41.885Z,3870.00
2019-06-26T09:16:41.877Z,3954.38
2019-06-26T09:17:41.964Z,4235.62
2019-06-26T09:18:41.894Z,4297.50
2019-06-26T09:19:41.843Z,3999.38
2019-06-26T09:20:41.838Z,3937.50
2019-06-26T09:21:41.821Z,4016.25
2019-06-26T09:22:41.814Z,4033.12
2019-06-26T09:23:41.803Z,4106.25
2019-06-26T09:24:41.820Z,4185.00
2019-06-26T09:25:41.789Z,4280.62
2019-06-26T09:26:41.767Z,4246.88
2019-06-26T09:27:41.758Z,4252.50
2019-06-26T09:28:41.794Z,4111.88
2019-06-26T09:29:41.737Z,4072.50
2019-06-26T09:30:41.725Z,4246.88
2019-06-26T09:31:41.727Z,4230.00
2019-06-26T09:32:41.706Z,4106.25
2019-06-26T09:33:41.698Z,4033.12
2019-06-26T09:34:41.717Z,4286.25
2019-06-26T09:35:41.681Z,4027.50
2019-06-26T09:36:41.706Z,3678.75
2019-06-26T09:37:41.667Z,3768.75
2019-06-26T09:38:41.640Z,4190.62
2019-06-26T09:39:41.721Z,4674.38
2019-06-26T09:40:41.631Z,4230.00
2019-06-26T09:41:41.605Z,4348.12
2019-06-26T09:42:41.635Z,4640.62
2019-06-26T09:43:41.589Z,4230.00
2019-06-26T09:44:41.784Z,4426.88
2019-06-26T09:45:41.561Z,4657.50
2019-06-26T09:46:41.561Z,4173.75
2019-06-26T09:47:41.633Z,3706.88
2019-06-26T09:48:51.994Z,4140.00
2019-06-26T09:49:42.513Z,4460.62
2019-06-26T09:50:41.504Z,4201.88
2019-06-26T09:51:41.493Z,4230.00
2019-06-26T09:52:41.508Z,4483.12
2019-06-26T09:53:47.033Z,3988.12
2019-06-26T09:54:42.467Z,3915.00
2019-06-26T09:55:41.535Z,4123.12
2019-06-26T09:56:41.448Z,4016.25
2019-06-26T09:57:41.427Z,3751.88
2019-06-26T09:58:41.456Z,3313.12
2019-06-26T09:59:41.453Z,3628.12
2019-06-26T10:00:41.397Z,3751.88
2019-06-26T10:01:41.430Z,3976.88
2019-06-26T10:02:41.389Z,4398.75
2019-06-26T10:03:45.037Z,4578.75
2019-06-26T10:04:41.380Z,4781.25
2019-06-26T10:05:41.339Z,4837.50
2019-06-26T10:06:41.332Z,4460.62
2019-06-26T10:07:41.319Z,3870.00
2019-06-26T10:08:41.309Z,4185.00
2019-06-26T10:09:41.359Z,4809.38
2019-06-26T10:10:41.300Z,4381.88
2019-06-26T10:11:41.282Z,4134.38
2019-06-26T10:12:41.268Z,4308.75
2019-06-26T10:13:41.262Z,4561.88
2019-06-26T10:14:47.645Z,4320.00
2019-06-26T10:15:42.300Z,4252.50
2019-06-26T10:16:41.220Z,4629.38
2019-06-26T10:17:41.222Z,4556.25
2019-06-26T10:18:41.209Z,4128.75
2019-06-26T10:19:41.231Z,4044.38
2019-06-26T10:20:41.222Z,4201.88
2019-06-26T10:21:41.171Z,4286.25
2019-06-26T10:22:41.165Z,4415.62
2019-06-26T10:23:41.218Z,4241.25
2019-06-26T10:24:41.149Z,3993.75
2019-06-26T10:25:41.192Z,4033.12
2019-06-26T10:26:41.268Z,4224.38
2019-06-26T10:27:41.125Z,4365.00
2019-06-26T10:28:41.117Z,4415.62
2019-06-26T10:29:41.110Z,4021.88
2019-06-26T10:30:41.099Z,4033.12
2019-06-26T10:31:41.192Z,4381.88
2019-06-26T10:32:41.076Z,4770.00
2019-06-26T10:33:41.103Z,4882.50
2019-06-26T10:34:41.042Z,4387.50
2019-06-26T10:35:41.029Z,3988.12
2019-06-26T10:36:41.019Z,3982.50
2019-06-26T10:37:41.010Z,4230.00
2019-06-26T10:38:41.010Z,4387.50
2019-06-26T10:39:41.041Z,4618.12
2019-06-26T10:40:40.972Z,4545.00
2019-06-26T10:41:40.971Z,4218.75
2019-06-26T10:42:40.951Z,3920.62
2019-06-26T10:43:40.957Z,4179.38
2019-06-26T10:44:40.940Z,4764.38
2019-06-26T10:45:40.991Z,4770.00
2019-06-26T10:46:40.943Z,4550.62
2019-06-26T10:47:40.904Z,4618.12
2019-06-26T10:48:40.900Z,4803.75
2019-06-26T10:49:40.883Z,4601.25
2019-06-26T10:50:49.780Z,4241.25
2019-06-26T10:51:41.902Z,4089.38
2019-06-26T10:52:40.853Z,4460.62
2019-06-26T10:53:40.896Z,4815.00
2019-06-26T10:54:44.209Z,4618.12
2019-06-26T10:55:40.821Z,4455.00
2019-06-26T10:56:40.827Z,4336.88
2019-06-26T10:57:40.822Z,4190.62
2019-06-26T10:58:40.873Z,4128.75
2019-06-26T10:59:40.795Z,4111.88
2019-06-26T11:00:40.806Z,3813.75
2019-06-26T11:01:48.169Z,3915.00
2019-06-26T11:02:40.771Z,4258.12
2019-06-26T11:03:47.864Z,4370.62
2019-06-26T11:04:40.734Z,4438.12
2019-06-26T11:05:40.713Z,4426.88
2019-06-26T11:06:40.727Z,4365.00
2019-06-26T11:07:40.698Z,4185.00
2019-06-26T11:08:40.725Z,4201.88
2019-06-26T11:09:48.372Z,4241.25
2019-06-26T11:10:47.744Z,4308.75
2019-06-26T11:11:40.655Z,4410.00
2019-06-26T11:12:40.643Z,4201.88
2019-06-26T11:13:47.804Z,4050.00
2019-06-26T11:14:47.721Z,4140.00
2019-06-26T11:15:47.739Z,4027.50
2019-06-26T11:16:47.732Z,4213.12
2019-06-26T11:17:40.602Z,4421.25
2019-06-26T11:18:40.607Z,4320.00
2019-06-26T11:19:44.191Z,4314.38
2019-06-26T11:20:40.582Z,4342.50
2019-06-26T11:21:40.572Z,4230.00
2019-06-26T11:22:40.602Z,4106.25
2019-06-26T11:23:41.249Z,4258.12
2019-06-26T11:24:40.557Z,4359.38
2019-06-26T11:25:44.199Z,4308.75
2019-06-26T11:26:40.515Z,4398.75
2019-06-26T11:27:47.578Z,4207.50
2019-06-26T11:28:40.519Z,4145.62
2019-06-26T11:29:40.742Z,4269.38
2019-06-26T11:30:40.468Z,4381.88
2019-06-26T11:31:47.197Z,4246.88
2019-06-26T11:32:40.467Z,4066.88
2019-06-26T11:33:40.456Z,4196.25
2019-06-26T11:34:40.432Z,4438.12
2019-06-26T11:35:40.457Z,4162.50
2019-06-26T11:36:41.489Z,3841.88
2019-06-26T11:37:40.388Z,3926.25
2019-06-26T11:38:40.382Z,3847.50
2019-06-26T11:39:40.359Z,3988.12
2019-06-26T11:40:40.377Z,4539.38
2019-06-26T11:41:40.387Z,4550.62
2019-06-26T11:42:40.340Z,4207.50
2019-06-26T11:43:40.327Z,4168.12
2019-06-26T11:44:40.410Z,4196.25
2019-06-26T11:45:40.318Z,3988.12
2019-06-26T11:46:47.289Z,3937.50
2019-06-26T11:47:40.322Z,4061.25
2019-06-26T11:48:40.278Z,4123.12
2019-06-26T11:49:40.267Z,3920.62
2019-06-26T11:50:40.267Z,3971.25
2019-06-26T11:51:49.835Z,4117.50
2019-06-26T11:52:40.242Z,4190.62
2019-06-26T11:53:40.227Z,4050.00
2019-06-26T11:54:40.209Z,4151.25
2019-06-26T11:55:40.257Z,4213.12
2019-06-26T11:56:40.268Z,4162.50
2019-06-26T11:57:40.179Z,4061.25
2019-06-26T11:58:40.176Z,3976.88
2019-06-26T11:59:40.163Z,4005.00
2019-06-26T12:00:41.673Z,3965.62
2019-06-26T12:01:40.182Z,3909.38
2019-06-26T12:02:40.138Z,4083.75
2019-06-26T12:03:40.209Z,4258.12
2019-06-26T12:04:40.371Z,4016.25
2019-06-26T12:05:40.160Z,3858.75
2019-06-26T12:06:40.124Z,4016.25
2019-06-26T12:07:40.121Z,4027.50
2019-06-26T12:08:40.070Z,3948.75
2019-06-26T12:09:40.092Z,3943.12
2019-06-26T12:10:40.050Z,4286.25
2019-06-26T12:11:40.059Z,4100.62
2019-06-26T12:12:40.035Z,3892.50
2019-06-26T12:13:40.060Z,3982.50
2019-06-26T12:14:39.999Z,3937.50
2019-06-26T12:15:39.990Z,3796.88
2019-06-26T12:16:39.990Z,3678.75
2019-06-26T12:17:39.991Z,3616.88
2019-06-26T12:18:39.959Z,3487.50
2019-06-26T12:19:40.006Z,3701.25
2019-06-26T12:20:39.940Z,3633.75
2019-06-26T12:21:39.951Z,3414.38
2019-06-26T12:22:39.970Z,3701.25
2019-06-26T12:23:39.909Z,4016.25
2019-06-26T12:24:39.904Z,4201.88
2019-06-26T12:25:39.923Z,4336.88
2019-06-26T12:26:39.892Z,4359.38
2019-06-26T12:27:39.911Z,3830.62
2019-06-26T12:28:39.884Z,3521.25
2019-06-26T12:29:39.841Z,3538.12
2019-06-26T12:30:39.834Z,3723.75
2019-06-26T12:31:39.838Z,3813.75
2019-06-26T12:32:42.712Z,3667.50
2019-06-26T12:33:40.842Z,3616.88
2019-06-26T12:34:39.802Z,3628.12